Карточка аэропорта UNKL

Внимание!
Информация на этой странице в стадии наполнения.
Если вы не увидели какой-то информации, или заметили неточность - пожалуйста сообщите нам!
Спасибо!
Команда RU-STAFF
Название аэропортаЕмельяново
Название аэропорта (англ.)Yemelyanovo
Превышение942 ft. (287.1 m.)
Координаты56°10.386', 92°29.598'
Высота перехода7500ft
Эшелон переходаFL090
Коды ответчика5320-5377
Зона ОрВДКрасноярск РПИ (UNKL)
Данные METARUNKL 150200Z 23007MPS 9999 -SHRA SCT044CB 10/05 Q1004 R29/290155 NOSIG RMK QFE728
Проноз погоды (TAF)UNKL 141953Z 1421/1521 23003G08MPS 9999 BKN016CB TEMPO 1421/1424 20008G18MPS BECMG 1500/1503 23008G16MPS BECMG 1512/1515 28008G16MPS TEMPO 1518/1521 2000 SHSN BKN010 BKN016CB
NOTAMshow/hide NOTAM
AWOS   TABLE

Информация о ВПП

ВПП Длина ВПП (м.) Покрытие Курс ВПП Частота ILS
113700Асфальтобетон109110.5
293700Асфальтобетон289111.7

Диспетчерские позиции

Позывной Наименование органа УВД Частота
UNKL_APPКрасноярск-Подход127.7
UNKL_GNDКрасноярск-Руление121.9
UNKL_R_APPКрасноярск-Круг122.0
UNKL_TWRКрасноярск-Вышка118.3



Спутниковое изображение